Time;durP1;ratioP1;P1;durP2;ratioP2;P2;SDS_P1;SDS_P2;PMS_P1;PMS_P2;Temp;Humidity;BMP_temperature;BMP_pressure;BME280_temperature;BME280_humidity;BME280_pressure;Samples;Min_cycle;Max_cycle;Signal;HPM_P1;HPM_P2
2021/05/17 00:00:28;;;;;;;0.63;0.43;;;;;;;;;;5092356;28;20054;-47
2021/05/17 00:02:58;;;;;;;0.30;0.30;;;;;;;;;;5092400;28;20031;-48
2021/05/17 00:05:25;;;;;;;0.57;0.40;;;;;;;;;;5092809;28;20028;-47
2021/05/17 00:07:51;;;;;;;5.05;0.60;;;;;;;;;;5082640;28;20393;-47
2021/05/17 00:10:17;;;;;;;0.60;0.60;;;;;;;;;;5071824;28;20027;-47
2021/05/17 00:12:43;;;;;;;1.20;0.45;;;;;;;;;;5072034;28;20448;-47
2021/05/17 00:15:13;;;;;;;0.45;0.45;;;;;;;;;;5071813;28;20450;-47
2021/05/17 00:17:39;;;;;;;0.50;0.50;;;;;;;;;;5071826;28;20044;-47
2021/05/17 00:20:10;;;;;;;1.25;0.50;;;;;;;;;;5071801;28;20058;-47
2021/05/17 00:22:36;;;;;;;0.45;0.43;;;;;;;;;;5071721;28;20070;-47
2021/05/17 00:25:02;;;;;;;0.30;0.30;;;;;;;;;;5071680;28;20458;-47
2021/05/17 00:27:28;;;;;;;0.88;0.52;;;;;;;;;;5077792;28;20032;-47
2021/05/17 00:29:54;;;;;;;0.50;0.50;;;;;;;;;;5091707;28;20101;-47
2021/05/17 00:32:20;;;;;;;0.60;0.50;;;;;;;;;;5091700;28;20017;-47
2021/05/17 00:34:46;;;;;;;1.17;0.90;;;;;;;;;;5091837;28;20062;-47
2021/05/17 00:37:13;;;;;;;0.50;0.50;;;;;;;;;;5091720;28;20028;-47
2021/05/17 00:39:39;;;;;;;0.68;0.55;;;;;;;;;;5091678;28;20025;-47
2021/05/17 00:42:06;;;;;;;0.47;0.47;;;;;;;;;;5091462;28;20024;-47
2021/05/17 00:44:32;;;;;;;0.40;0.40;;;;;;;;;;5091422;28;20361;-47
2021/05/17 00:46:58;;;;;;;0.47;0.47;;;;;;;;;;5091937;28;20020;-47
2021/05/17 00:49:24;;;;;;;0.50;0.50;;;;;;;;;;5091703;28;20035;-47
2021/05/17 00:51:50;;;;;;;0.60;0.60;;;;;;;;;;5091223;28;20376;-48
2021/05/17 00:54:16;;;;;;;0.85;0.50;;;;;;;;;;5091351;28;20024;-47
2021/05/17 00:56:42;;;;;;;0.43;0.40;;;;;;;;;;5091338;28;20477;-47
2021/05/17 00:59:09;;;;;;;0.43;0.43;;;;;;;;;;5091158;28;20469;-47
2021/05/17 01:01:35;;;;;;;4.28;0.50;;;;;;;;;;5091213;28;20481;-46
2021/05/17 01:04:01;;;;;;;3.10;0.40;;;;;;;;;;5091465;28;20016;-47
2021/05/17 01:06:31;;;;;;;0.40;0.40;;;;;;;;;;5091584;28;20123;-46
2021/05/17 01:09:03;;;;;;;0.50;0.50;;;;;;;;;;5091401;28;20028;-46
2021/05/17 01:11:30;;;;;;;0.30;0.30;;;;;;;;;;5090872;28;20081;-47
2021/05/17 01:13:57;;;;;;;0.35;0.35;;;;;;;;;;5091280;28;20385;-46
2021/05/17 01:16:24;;;;;;;1.05;0.77;;;;;;;;;;5091672;28;20020;-47
2021/05/17 01:18:51;;;;;;;0.40;0.40;;;;;;;;;;5091080;28;20035;-47
2021/05/17 01:21:18;;;;;;;0.30;0.30;;;;;;;;;;5090838;28;20016;-47
2021/05/17 01:23:49;;;;;;;6.80;0.60;;;;;;;;;;5091121;28;20120;-47
2021/05/17 01:26:16;;;;;;;2.78;0.70;;;;;;;;;;5091698;28;20054;-48
2021/05/17 01:28:43;;;;;;;3.03;0.70;;;;;;;;;;5090675;28;20066;-47
2021/05/17 01:31:11;;;;;;;0.50;0.50;;;;;;;;;;5091290;28;20024;-47
2021/05/17 01:33:41;;;;;;;0.40;0.40;;;;;;;;;;5090932;28;20107;-47
2021/05/17 01:36:07;;;;;;;0.50;0.50;;;;;;;;;;5090695;28;20083;-47
2021/05/17 01:38:35;;;;;;;1.65;0.40;;;;;;;;;;5091005;28;20127;-46
2021/05/17 01:41:03;;;;;;;0.40;0.40;;;;;;;;;;5090851;28;20012;-47
2021/05/17 01:43:32;;;;;;;0.30;0.30;;;;;;;;;;5072382;28;20032;-47
2021/05/17 01:46:01;;;;;;;0.32;0.32;;;;;;;;;;5070569;28;20427;-47
2021/05/17 01:48:28;;;;;;;0.45;0.45;;;;;;;;;;5070407;28;20025;-46
2021/05/17 01:50:54;;;;;;;0.30;0.30;;;;;;;;;;5073283;28;20024;-47
2021/05/17 01:53:20;;;;;;;0.75;0.40;;;;;;;;;;5090758;28;20118;-47
2021/05/17 01:55:48;;;;;;;0.40;0.40;;;;;;;;;;5090887;28;20024;-47
2021/05/17 01:58:20;;;;;;;0.40;0.40;;;;;;;;;;5090929;28;20060;-46
2021/05/17 02:00:46;;;;;;;0.40;0.40;;;;;;;;;;5091717;28;20062;-48
2021/05/17 02:03:12;;;;;;;0.73;0.30;;;;;;;;;;5094406;28;20374;-47
2021/05/17 02:05:38;;;;;;;0.32;0.32;;;;;;;;;;5094740;28;20107;-47
2021/05/17 02:08:05;;;;;;;4.05;0.93;;;;;;;;;;5094698;28;20024;-47
2021/05/17 02:10:31;;;;;;;1.13;0.50;;;;;;;;;;5094167;28;20009;-47
2021/05/17 02:12:58;;;;;;;0.50;0.43;;;;;;;;;;5094605;28;20438;-47
2021/05/17 02:15:25;;;;;;;0.38;0.38;;;;;;;;;;5094151;28;20433;-47
2021/05/17 02:18:01;;;;;;;0.82;0.57;;;;;;;;;;5093960;28;20161;-47
2021/05/17 02:20:29;;;;;;;0.30;0.30;;;;;;;;;;5094393;28;20173;-47
2021/05/17 02:22:56;;;;;;;0.30;0.30;;;;;;;;;;5094526;28;20044;-46
2021/05/17 02:25:22;;;;;;;0.32;0.32;;;;;;;;;;5086883;28;20024;-48
2021/05/17 02:27:48;;;;;;;0.40;0.40;;;;;;;;;;5094343;28;20111;-48
2021/05/17 02:30:15;;;;;;;0.60;0.45;;;;;;;;;;5093559;28;20109;-48
2021/05/17 02:32:41;;;;;;;0.25;0.25;;;;;;;;;;5093742;28;20035;-48
2021/05/17 02:35:08;;;;;;;0.20;0.20;;;;;;;;;;5094011;28;20031;-47
2021/05/17 02:37:34;;;;;;;1.95;0.38;;;;;;;;;;5080581;28;20024;-48
2021/05/17 02:40:04;;;;;;;0.30;0.30;;;;;;;;;;5083717;28;20024;-49
2021/05/17 02:42:33;;;;;;;3.03;0.40;;;;;;;;;;5093966;28;20020;-48
2021/05/17 02:44:59;;;;;;;1.20;0.30;;;;;;;;;;5093403;28;20469;-51
2021/05/17 02:47:25;;;;;;;0.40;0.40;;;;;;;;;;5093855;28;20035;-47
2021/05/17 02:49:53;;;;;;;0.30;0.30;;;;;;;;;;5093884;28;20400;-46
2021/05/17 02:52:19;;;;;;;0.30;0.30;;;;;;;;;;5093914;28;20028;-46
2021/05/17 02:54:57;;;;;;;3.13;0.40;;;;;;;;;;5093616;28;20099;-47
2021/05/17 02:57:36;;;;;;;0.30;0.30;;;;;;;;;;5093417;28;20036;-47
2021/05/17 03:00:21;;;;;;;0.45;0.30;;;;;;;;;;5093767;28;20047;-47
2021/05/17 03:02:46;;;;;;;0.30;0.30;;;;;;;;;;5093902;28;20456;-47
2021/05/17 03:05:15;;;;;;;1.90;0.35;;;;;;;;;;5093528;28;20488;-46
2021/05/17 03:07:44;;;;;;;0.38;0.38;;;;;;;;;;5085446;28;20033;-46
2021/05/17 03:10:10;;;;;;;0.40;0.40;;;;;;;;;;5072199;28;20430;-47
2021/05/17 03:12:38;;;;;;;0.43;0.43;;;;;;;;;;5073121;28;20025;-47
2021/05/17 03:15:05;;;;;;;7.32;0.63;;;;;;;;;;5072909;28;20023;-47
2021/05/17 03:17:31;;;;;;;0.30;0.30;;;;;;;;;;5073047;28;20032;-46
2021/05/17 03:19:57;;;;;;;0.40;0.40;;;;;;;;;;5073380;28;20021;-47
2021/05/17 03:22:24;;;;;;;0.30;0.30;;;;;;;;;;5072833;28;20031;-47
2021/05/17 03:24:52;;;;;;;0.30;0.30;;;;;;;;;;5072940;28;20024;-47
2021/05/17 03:27:24;;;;;;;0.98;0.50;;;;;;;;;;5078509;28;20126;-47
2021/05/17 03:29:51;;;;;;;0.52;0.50;;;;;;;;;;5093059;28;20024;-47
2021/05/17 03:32:17;;;;;;;0.50;0.50;;;;;;;;;;5092669;28;20031;-48
2021/05/17 03:34:43;;;;;;;0.38;0.38;;;;;;;;;;5092841;28;20059;-47
2021/05/17 03:37:10;;;;;;;0.30;0.30;;;;;;;;;;5092649;28;20078;-47
2021/05/17 03:39:36;;;;;;;0.73;0.40;;;;;;;;;;5092125;28;20032;-47
2021/05/17 03:42:02;;;;;;;0.30;0.30;;;;;;;;;;5092494;28;20062;-47
2021/05/17 03:44:28;;;;;;;1.70;0.30;;;;;;;;;;5093050;28;20024;-47
2021/05/17 03:46:54;;;;;;;0.47;0.47;;;;;;;;;;5092909;28;20022;-47
2021/05/17 03:49:20;;;;;;;0.30;0.30;;;;;;;;;;5092761;28;20024;-47
2021/05/17 03:51:46;;;;;;;1.38;0.50;;;;;;;;;;5092069;28;20016;-46
2021/05/17 03:54:12;;;;;;;0.40;0.25;;;;;;;;;;5092488;28;20020;-47
2021/05/17 03:56:38;;;;;;;0.30;0.30;;;;;;;;;;5092696;28;20038;-47
2021/05/17 03:59:04;;;;;;;0.30;0.30;;;;;;;;;;5092610;28;20070;-47
2021/05/17 04:01:30;;;;;;;6.40;0.50;;;;;;;;;;5092020;28;20323;-47
2021/05/17 04:03:57;;;;;;;0.30;0.30;;;;;;;;;;5093013;28;20036;-47
2021/05/17 04:06:40;;;;;;;0.40;0.40;;;;;;;;;;5092010;28;20111;-47
2021/05/17 04:14:35;;;;;;;0.40;0.40;;;;;;;;;;5075923;28;20063;-46
2021/05/17 04:17:01;;;;;;;0.30;0.30;;;;;;;;;;5091887;28;20522;-47
2021/05/17 04:19:28;;;;;;;3.22;0.70;;;;;;;;;;5091756;28;20036;-46
2021/05/17 04:21:54;;;;;;;4.03;0.30;;;;;;;;;;5091614;28;20097;-47
2021/05/17 04:24:20;;;;;;;0.82;0.40;;;;;;;;;;5089803;28;20030;-46
2021/05/17 04:26:46;;;;;;;1.27;0.30;;;;;;;;;;5091671;28;20350;-46
2021/05/17 04:29:12;;;;;;;0.30;0.30;;;;;;;;;;5091717;28;20028;-47
2021/05/17 04:31:38;;;;;;;0.30;0.30;;;;;;;;;;5091228;28;20039;-47
2021/05/17 04:34:04;;;;;;;0.80;0.47;;;;;;;;;;5092043;28;20114;-48
2021/05/17 04:36:31;;;;;;;1.48;0.40;;;;;;;;;;5087127;28;20024;-48
2021/05/17 04:38:59;;;;;;;0.68;0.40;;;;;;;;;;5072873;28;20369;-47
2021/05/17 04:41:25;;;;;;;0.60;0.60;;;;;;;;;;5091493;28;20411;-47
2021/05/17 04:43:51;;;;;;;2.08;0.70;;;;;;;;;;5091589;28;20458;-49
2021/05/17 04:46:17;;;;;;;0.77;0.40;;;;;;;;;;5091852;28;20036;-47
2021/05/17 04:48:49;;;;;;;0.30;0.30;;;;;;;;;;5091924;28;20030;-47
2021/05/17 04:51:19;;;;;;;6.25;0.50;;;;;;;;;;5091395;28;20016;-49
2021/05/17 04:53:45;;;;;;;0.30;0.30;;;;;;;;;;5091817;28;20031;-48
2021/05/17 04:56:11;;;;;;;0.40;0.40;;;;;;;;;;5091043;28;20048;-47
2021/05/17 04:58:37;;;;;;;6.15;0.70;;;;;;;;;;5090726;28;20129;-47
2021/05/17 05:01:04;;;;;;;0.63;0.45;;;;;;;;;;5091109;28;20454;-47
2021/05/17 05:03:30;;;;;;;3.10;0.52;;;;;;;;;;5091687;28;20028;-46
2021/05/17 05:05:57;;;;;;;2.15;0.40;;;;;;;;;;5091460;28;20103;-46
2021/05/17 05:08:23;;;;;;;0.30;0.30;;;;;;;;;;5090951;28;20361;-46
2021/05/17 05:10:49;;;;;;;1.02;0.80;;;;;;;;;;5091011;28;20099;-46
2021/05/17 05:13:15;;;;;;;0.85;0.60;;;;;;;;;;5090822;28;20364;-46
2021/05/17 05:15:41;;;;;;;0.50;0.50;;;;;;;;;;5091483;28;20016;-46
2021/05/17 05:18:07;;;;;;;0.40;0.40;;;;;;;;;;5091320;28;20038;-47
2021/05/17 05:20:33;;;;;;;0.50;0.50;;;;;;;;;;5091056;28;20111;-46
2021/05/17 05:23:01;;;;;;;0.77;0.77;;;;;;;;;;5091109;28;20356;-46
2021/05/17 05:25:33;;;;;;;1.85;0.50;;;;;;;;;;5091303;28;20111;-46
2021/05/17 05:28:00;;;;;;;2.72;0.68;;;;;;;;;;5091471;28;20025;-46
2021/05/17 05:30:54;;;;;;;0.40;0.40;;;;;;;;;;5090818;28;20526;-46
2021/05/17 05:33:16;;;;;;;0.65;0.65;;;;;;;;;;5091070;28;20032;-46
2021/05/17 05:35:43;;;;;;;1.17;0.82;;;;;;;;;;5092083;28;20020;-46
2021/05/17 05:38:09;;;;;;;1.02;0.70;;;;;;;;;;5094872;28;20044;-46
2021/05/17 05:40:35;;;;;;;3.35;0.52;;;;;;;;;;5094710;28;20065;-46
2021/05/17 05:43:01;;;;;;;1.00;0.63;;;;;;;;;;5095418;28;20344;-46
2021/05/17 05:45:28;;;;;;;0.40;0.40;;;;;;;;;;5095230;28;20111;-46
2021/05/17 05:47:54;;;;;;;1.25;0.60;;;;;;;;;;5095128;28;20016;-46
2021/05/17 05:50:20;;;;;;;2.28;0.47;;;;;;;;;;5094681;28;20028;-47
2021/05/17 05:52:46;;;;;;;0.93;0.52;;;;;;;;;;5094340;28;20024;-46
2021/05/17 05:55:13;;;;;;;4.63;0.57;;;;;;;;;;5095320;28;20028;-46
2021/05/17 05:57:43;;;;;;;0.70;0.52;;;;;;;;;;5095079;28;20059;-47
2021/05/17 06:00:10;;;;;;;2.30;0.88;;;;;;;;;;5094663;28;20217;-46
2021/05/17 06:02:37;;;;;;;2.65;0.50;;;;;;;;;;5094572;28;20388;-46
2021/05/17 06:05:03;;;;;;;4.45;0.50;;;;;;;;;;5094682;28;20086;-46
2021/05/17 06:07:29;;;;;;;1.08;0.60;;;;;;;;;;5088067;28;20020;-46
2021/05/17 06:09:55;;;;;;;2.35;0.65;;;;;;;;;;5074435;28;20032;-46
2021/05/17 06:12:22;;;;;;;4.22;1.10;;;;;;;;;;5073896;28;20397;-46
2021/05/17 06:14:53;;;;;;;1.80;0.70;;;;;;;;;;5074374;28;20036;-46
2021/05/17 06:17:19;;;;;;;;;;;;;;;;;;5074987;28;20032;-46
2021/05/17 06:19:45;;;;;;;1.75;0.60;;;;;;;;;;5074027;28;19951;-46
2021/05/17 06:22:11;;;;;;;0.20;0.20;;;;;;;;;;5073928;28;20038;-47
2021/05/17 06:24:37;;;;;;;2.00;0.60;;;;;;;;;;5074660;28;20033;-46
2021/05/17 06:27:03;;;;;;;0.63;0.40;;;;;;;;;;5077146;28;20012;-46
2021/05/17 06:29:29;;;;;;;2.80;0.80;;;;;;;;;;5093838;28;20036;-46
2021/05/17 06:31:55;;;;;;;0.68;0.68;;;;;;;;;;5092956;28;20020;-46
2021/05/17 06:34:22;;;;;;;0.30;0.30;;;;;;;;;;5092527;28;20433;-47
2021/05/17 06:36:48;;;;;;;7.13;0.90;;;;;;;;;;5093122;28;20460;-46
2021/05/17 06:39:15;;;;;;;0.75;0.65;;;;;;;;;;5092808;28;20032;-47
2021/05/17 06:41:41;;;;;;;0.90;0.50;;;;;;;;;;5092509;28;20497;-46
2021/05/17 06:44:07;;;;;;;2.63;0.63;;;;;;;;;;5093099;28;20070;-48
2021/05/17 06:46:33;;;;;;;0.30;0.30;;;;;;;;;;5092443;28;20362;-46
2021/05/17 06:48:59;;;;;;;1.05;0.47;;;;;;;;;;5092490;28;20036;-46
2021/05/17 06:51:26;;;;;;;3.22;0.45;;;;;;;;;;5092142;28;20438;-46
2021/05/17 06:53:56;;;;;;;0.30;0.30;;;;;;;;;;5092939;28;20055;-46
2021/05/17 06:56:27;;;;;;;1.75;0.60;;;;;;;;;;5092445;28;20112;-46
2021/05/17 06:58:58;;;;;;;0.52;0.40;;;;;;;;;;5092245;28;20119;-46
2021/05/17 07:01:25;;;;;;;4.22;0.93;;;;;;;;;;5092193;28;20024;-46
2021/05/17 07:03:51;;;;;;;2.60;0.82;;;;;;;;;;5092590;28;20032;-46
2021/05/17 07:06:21;;;;;;;2.50;0.60;;;;;;;;;;5092908;28;20310;-46
2021/05/17 07:11:45;;;;;;;4.43;0.90;;;;;;;;;;5072119;28;20512;-47
2021/05/17 07:14:12;;;;;;;0.70;0.63;;;;;;;;;;5072006;28;20052;-46
2021/05/17 07:16:38;;;;;;;4.30;1.00;;;;;;;;;;5072190;28;20035;-46
2021/05/17 07:19:04;;;;;;;2.28;1.23;;;;;;;;;;5072353;28;20119;-46
2021/05/17 07:24:15;;;;;;;1.10;0.57;;;;;;;;;;5072493;28;20120;-46
2021/05/17 07:26:41;;;;;;;1.08;0.60;;;;;;;;;;5072226;28;20074;-47
2021/05/17 07:29:10;;;;;;;0.68;0.65;;;;;;;;;;5072418;28;564696;-46
2021/05/17 07:31:36;;;;;;;4.32;1.00;;;;;;;;;;5092914;28;20348;-46
2021/05/17 07:34:02;;;;;;;2.33;0.60;;;;;;;;;;5093179;28;20233;-46
2021/05/17 07:36:28;;;;;;;2.72;0.70;;;;;;;;;;5093438;28;20051;-46
2021/05/17 07:38:54;;;;;;;3.67;0.73;;;;;;;;;;5092630;28;20099;-47
2021/05/17 07:41:20;;;;;;;0.43;0.43;;;;;;;;;;5092852;28;20020;-46
2021/05/17 07:43:47;;;;;;;4.95;1.38;;;;;;;;;;5092941;28;20093;-46
2021/05/17 07:46:13;;;;;;;0.30;0.30;;;;;;;;;;5093095;28;20154;-46
2021/05/17 07:51:24;;;;;;;1.10;0.85;;;;;;;;;;5092593;28;20098;-46
2021/05/17 07:53:50;;;;;;;3.40;0.60;;;;;;;;;;5092675;28;20058;-47
2021/05/17 07:56:16;;;;;;;0.60;0.35;;;;;;;;;;5093088;28;20039;-48
2021/05/17 07:58:43;;;;;;;2.58;1.40;;;;;;;;;;5091519;28;20119;-46
2021/05/17 08:01:11;;;;;;;0.70;0.60;;;;;;;;;;5092475;28;20020;-47
2021/05/17 08:03:37;;;;;;;0.70;0.45;;;;;;;;;;5092389;28;20440;-46
2021/05/17 08:06:03;;;;;;;1.45;0.52;;;;;;;;;;5092568;28;20095;-46
2021/05/17 08:08:29;;;;;;;0.50;0.40;;;;;;;;;;5092658;28;20020;-46
2021/05/17 08:10:55;;;;;;;0.40;0.40;;;;;;;;;;5092323;28;20308;-46
2021/05/17 08:13:21;;;;;;;0.63;0.50;;;;;;;;;;5092276;28;20024;-46
2021/05/17 08:15:47;;;;;;;0.85;0.65;;;;;;;;;;5092214;28;20350;-46
2021/05/17 08:18:13;;;;;;;0.40;0.38;;;;;;;;;;5092116;28;20030;-47
2021/05/17 08:20:39;;;;;;;1.25;0.40;;;;;;;;;;5091623;28;20016;-46
2021/05/17 08:23:06;;;;;;;0.40;0.40;;;;;;;;;;5092570;28;20020;-46
2021/05/17 08:25:32;;;;;;;0.85;0.25;;;;;;;;;;5092380;28;20224;-46
2021/05/17 08:27:59;;;;;;;0.43;0.43;;;;;;;;;;5092163;28;20563;-47
2021/05/17 08:30:25;;;;;;;2.83;0.70;;;;;;;;;;5091448;28;20115;-46
2021/05/17 08:32:51;;;;;;;3.33;0.55;;;;;;;;;;5092053;28;20020;-47
2021/05/17 08:35:18;;;;;;;0.30;0.30;;;;;;;;;;5091850;28;20115;-46
2021/05/17 08:37:44;;;;;;;1.30;0.63;;;;;;;;;;5092065;28;20034;-46
2021/05/17 08:40:10;;;;;;;0.50;0.50;;;;;;;;;;5091830;28;20429;-46
2021/05/17 08:42:36;;;;;;;0.30;0.30;;;;;;;;;;5092049;28;20058;-46
2021/05/17 08:45:03;;;;;;;1.27;0.65;;;;;;;;;;5091856;28;20051;-46
2021/05/17 08:47:29;;;;;;;3.63;0.63;;;;;;;;;;5091592;28;20342;-47
2021/05/17 08:49:55;;;;;;;0.88;0.55;;;;;;;;;;5091225;28;20020;-47
2021/05/17 08:52:21;;;;;;;0.30;0.30;;;;;;;;;;5091656;28;20024;-47
2021/05/17 08:54:47;;;;;;;1.08;0.25;;;;;;;;;;5091399;28;20456;-46
2021/05/17 08:57:15;;;;;;;3.08;0.60;;;;;;;;;;5091589;28;20027;-46
2021/05/17 08:59:41;;;;;;;0.63;0.50;;;;;;;;;;5091464;28;20036;-46
2021/05/17 09:02:07;;;;;;;0.47;0.47;;;;;;;;;;5091577;28;20024;-46
2021/05/17 09:04:33;;;;;;;0.30;0.30;;;;;;;;;;5090993;28;20028;-46
2021/05/17 09:06:59;;;;;;;0.30;0.30;;;;;;;;;;5089197;28;20436;-46
2021/05/17 09:09:30;;;;;;;0.80;0.75;;;;;;;;;;5071234;28;20051;-46
2021/05/17 09:11:57;;;;;;;1.10;0.40;;;;;;;;;;5070116;28;20106;-46
2021/05/17 09:14:24;;;;;;;0.40;0.40;;;;;;;;;;5071264;28;20108;-46
2021/05/17 09:16:52;;;;;;;0.30;0.30;;;;;;;;;;5070839;28;20346;-46
2021/05/17 09:19:19;;;;;;;0.30;0.30;;;;;;;;;;5071057;28;20074;-46
2021/05/17 09:22:04;;;;;;;0.50;0.50;;;;;;;;;;5070997;28;20446;-46
2021/05/17 09:24:37;;;;;;;0.28;0.28;;;;;;;;;;5071281;28;20032;-46
2021/05/17 09:27:04;;;;;;;0.50;0.50;;;;;;;;;;5074609;28;20019;-46
2021/05/17 09:29:35;;;;;;;0.52;0.20;;;;;;;;;;5090601;28;20479;-47
2021/05/17 09:32:10;;;;;;;0.20;0.20;;;;;;;;;;5090999;28;20019;-46
2021/05/17 09:34:36;;;;;;;0.52;0.40;;;;;;;;;;5091117;28;20025;-47
2021/05/17 09:37:03;;;;;;;0.30;0.30;;;;;;;;;;5091344;28;20024;-46
2021/05/17 09:39:29;;;;;;;0.63;0.30;;;;;;;;;;5091144;28;20040;-46
2021/05/17 09:41:57;;;;;;;0.30;0.30;;;;;;;;;;5090420;28;20016;-46
2021/05/17 09:44:24;;;;;;;0.20;0.20;;;;;;;;;;5091182;28;20028;-47
2021/05/17 09:47:00;;;;;;;0.20;0.20;;;;;;;;;;5090955;28;20058;-46
2021/05/17 09:49:34;;;;;;;0.20;0.20;;;;;;;;;;5091143;28;20028;-47
2021/05/17 09:52:09;;;;;;;0.30;0.30;;;;;;;;;;5090729;28;20028;-47
2021/05/17 09:54:51;;;;;;;0.30;0.30;;;;;;;;;;5090605;28;20024;-46
2021/05/17 09:57:21;;;;;;;0.20;0.20;;;;;;;;;;5091095;28;20020;-46
2021/05/17 09:59:48;;;;;;;0.20;0.20;;;;;;;;;;5090906;28;20028;-46
2021/05/17 10:02:33;;;;;;;0.20;0.20;;;;;;;;;;5090701;28;20024;-46
2021/05/17 10:05:08;;;;;;;0.40;0.40;;;;;;;;;;5090434;28;20047;-46
2021/05/17 10:07:34;;;;;;;0.22;0.22;;;;;;;;;;5090821;28;20111;-46
2021/05/17 10:10:01;;;;;;;0.28;0.28;;;;;;;;;;5090525;28;20103;-46
2021/05/17 10:12:28;;;;;;;0.50;0.50;;;;;;;;;;5090623;28;20024;-46
2021/05/17 10:14:54;;;;;;;2.95;0.50;;;;;;;;;;5090795;28;20020;-46
2021/05/17 10:17:20;;;;;;;0.65;0.45;;;;;;;;;;5090282;28;20093;-46
2021/05/17 10:19:46;;;;;;;3.60;0.50;;;;;;;;;;5090649;28;20318;-47
2021/05/17 10:22:12;;;;;;;1.52;0.40;;;;;;;;;;5092580;28;20024;-47
2021/05/17 10:24:38;;;;;;;2.70;0.52;;;;;;;;;;5094618;28;20016;-46
2021/05/17 10:27:05;;;;;;;1.20;0.60;;;;;;;;;;5094258;28;20477;-46
2021/05/17 10:29:33;;;;;;;4.45;0.70;;;;;;;;;;5094199;28;20106;-47
2021/05/17 10:32:00;;;;;;;0.85;0.43;;;;;;;;;;5093650;28;20158;-46
2021/05/17 10:34:26;;;;;;;2.63;0.75;;;;;;;;;;5094282;28;20028;-46
2021/05/17 10:36:57;;;;;;;1.45;0.50;;;;;;;;;;5094489;28;20031;-46
2021/05/17 10:39:42;;;;;;;4.60;0.70;;;;;;;;;;5094069;28;20039;-46
2021/05/17 10:48:09;;;;;;;0.52;0.50;;;;;;;;;;5100700;28;20044;-46
2021/05/17 10:50:36;;;;;;;0.30;0.30;;;;;;;;;;5093397;28;20024;-46
2021/05/17 10:53:02;;;;;;;0.90;0.30;;;;;;;;;;5093639;28;20452;-46
2021/05/17 10:55:29;;;;;;;0.20;0.20;;;;;;;;;;5093690;28;20031;-46
2021/05/17 11:00:29;;;;;;;0.38;0.30;;;;;;;;;;5093225;28;20181;-46
2021/05/17 11:03:11;;;;;;;0.20;0.20;;;;;;;;;;5093796;28;20028;-46
2021/05/17 11:05:37;;;;;;;0.65;0.40;;;;;;;;;;5093977;28;20024;-46
2021/05/17 11:08:08;;;;;;;0.63;0.63;;;;;;;;;;5093777;28;20028;-46
2021/05/17 11:10:39;;;;;;;0.32;0.32;;;;;;;;;;5093036;28;20024;-46
2021/05/17 11:13:05;;;;;;;0.30;0.30;;;;;;;;;;5093909;28;20024;-46
2021/05/17 11:15:47;;;;;;;0.25;0.25;;;;;;;;;;5093475;28;20077;-46
2021/05/17 11:18:13;;;;;;;0.20;0.20;;;;;;;;;;5093523;28;20166;-46
2021/05/17 11:20:43;;;;;;;1.83;0.40;;;;;;;;;;5093278;28;20107;-46
2021/05/17 11:23:14;;;;;;;0.20;0.20;;;;;;;;;;5093306;28;20035;-46
2021/05/17 11:25:50;;;;;;;0.40;0.40;;;;;;;;;;5093117;28;20362;-47
2021/05/17 11:28:17;;;;;;;0.47;0.47;;;;;;;;;;5093108;28;20020;-46
2021/05/17 11:30:44;;;;;;;0.40;0.40;;;;;;;;;;5092437;28;20665;-46
2021/05/17 11:33:17;;;;;;;0.63;0.40;;;;;;;;;;5092295;28;20115;-46
2021/05/17 11:35:59;;;;;;;0.30;0.30;;;;;;;;;;5093072;28;20024;-46
2021/05/17 11:38:26;;;;;;;4.90;0.52;;;;;;;;;;5092854;28;20457;-46
2021/05/17 11:40:52;;;;;;;0.40;0.40;;;;;;;;;;5092206;28;20028;-46
2021/05/17 11:43:19;;;;;;;0.32;0.30;;;;;;;;;;5093203;28;20024;-46
2021/05/17 11:45:45;;;;;;;0.30;0.30;;;;;;;;;;5092855;28;20026;-46
2021/05/17 11:48:11;;;;;;;0.30;0.30;;;;;;;;;;5092749;28;20357;-46
2021/05/17 11:50:37;;;;;;;0.20;0.20;;;;;;;;;;5092535;28;20101;-46
2021/05/17 11:53:04;;;;;;;0.38;0.38;;;;;;;;;;5092586;28;20028;-46
2021/05/17 11:55:30;;;;;;;0.30;0.30;;;;;;;;;;5092502;28;20135;-46
2021/05/17 11:57:56;;;;;;;0.52;0.40;;;;;;;;;;5092397;28;20597;-47
2021/05/17 12:00:26;;;;;;;1.48;0.40;;;;;;;;;;5092166;28;20263;-46
2021/05/17 12:02:53;;;;;;;3.00;0.50;;;;;;;;;;5092452;28;20040;-46
2021/05/17 12:05:20;;;;;;;1.17;0.60;;;;;;;;;;5092400;28;20039;-46
2021/05/17 12:07:47;;;;;;;0.50;0.50;;;;;;;;;;5083040;28;20413;-46
2021/05/17 12:10:14;;;;;;;0.30;0.30;;;;;;;;;;5071734;28;20494;-46
2021/05/17 12:12:41;;;;;;;0.52;0.52;;;;;;;;;;5071877;28;20052;-46
2021/05/17 12:15:10;;;;;;;0.40;0.40;;;;;;;;;;5072118;28;20025;-46
2021/05/17 12:17:37;;;;;;;0.38;0.32;;;;;;;;;;5071961;28;20032;-46
2021/05/17 12:20:07;;;;;;;1.20;0.63;;;;;;;;;;5072245;28;20055;-47
2021/05/17 12:22:39;;;;;;;2.92;0.68;;;;;;;;;;5071412;28;20728;-47
2021/05/17 12:25:08;;;;;;;1.25;0.57;;;;;;;;;;5071990;28;20063;-46
2021/05/17 12:27:34;;;;;;;0.90;0.50;;;;;;;;;;5078979;28;20046;-46
2021/05/17 12:30:16;;;;;;;0.68;0.68;;;;;;;;;;5092014;28;20028;-46
2021/05/17 12:32:47;;;;;;;1.55;0.50;;;;;;;;;;5091522;28;20020;-46
2021/05/17 12:35:13;;;;;;;2.58;1.15;;;;;;;;;;5092171;28;20085;-47
2021/05/17 12:37:59;;;;;;;0.30;0.30;;;;;;;;;;5091965;28;20066;-47
2021/05/17 12:40:33;;;;;;;0.40;0.40;;;;;;;;;;5091321;28;20031;-46
2021/05/17 12:43:02;;;;;;;3.15;0.68;;;;;;;;;;5091376;28;20446;-46
2021/05/17 12:45:28;;;;;;;2.92;0.40;;;;;;;;;;5091207;28;20028;-47
2021/05/17 12:47:54;;;;;;;0.30;0.30;;;;;;;;;;5091807;28;20457;-46
2021/05/17 12:50:26;;;;;;;0.30;0.30;;;;;;;;;;5091554;28;20024;-46
2021/05/17 12:53:01;;;;;;;0.30;0.30;;;;;;;;;;5082704;28;20399;-48
2021/05/17 12:55:28;;;;;;;0.35;0.30;;;;;;;;;;5073001;28;20021;-47
2021/05/17 12:57:58;;;;;;;0.70;0.38;;;;;;;;;;5070677;28;20028;-47
2021/05/17 13:00:36;;;;;;;0.30;0.30;;;;;;;;;;5073803;28;20387;-47
2021/05/17 13:03:09;;;;;;;0.20;0.20;;;;;;;;;;5088320;28;20046;-47
2021/05/17 13:05:51;;;;;;;0.38;0.38;;;;;;;;;;5090537;28;20364;-47
2021/05/17 13:08:17;;;;;;;0.20;0.20;;;;;;;;;;5090574;28;20107;-46
2021/05/17 13:10:56;;;;;;;0.40;0.40;;;;;;;;;;5091055;28;20047;-47
2021/05/17 13:13:43;;;;;;;0.80;0.45;;;;;;;;;;5091056;28;20062;-46
2021/05/17 13:16:14;;;;;;;0.32;0.32;;;;;;;;;;5091277;28;20063;-46
2021/05/17 13:32:12;;;;;;;0.75;0.43;;;;;;;;;;5091458;28;20043;-46
2021/05/17 13:34:38;;;;;;;0.80;0.60;;;;;;;;;;5091531;28;20027;-46
2021/05/17 13:37:04;;;;;;;0.68;0.68;;;;;;;;;;5090989;28;20099;-47
2021/05/17 13:39:30;;;;;;;0.30;0.30;;;;;;;;;;5090693;28;20567;-47
2021/05/17 13:41:56;;;;;;;0.85;0.40;;;;;;;;;;5090846;28;20020;-46
2021/05/17 13:44:23;;;;;;;1.55;0.90;;;;;;;;;;5091435;28;20050;-46
2021/05/17 13:46:49;;;;;;;0.50;0.50;;;;;;;;;;5090958;28;20469;-46
2021/05/17 13:49:15;;;;;;;0.28;0.28;;;;;;;;;;5091104;28;20491;-46
2021/05/17 13:51:41;;;;;;;0.20;0.20;;;;;;;;;;5090941;28;20028;-46
2021/05/17 13:54:07;;;;;;;0.30;0.30;;;;;;;;;;5090409;28;20085;-46
2021/05/17 13:56:33;;;;;;;0.75;0.40;;;;;;;;;;5092104;28;20027;-46
2021/05/17 13:58:59;;;;;;;0.20;0.20;;;;;;;;;;5094990;28;20067;-46
2021/05/17 14:01:25;;;;;;;0.22;0.22;;;;;;;;;;5094737;28;20353;-47
2021/05/17 14:03:52;;;;;;;0.30;0.30;;;;;;;;;;5094850;28;20422;-46
2021/05/17 14:06:18;;;;;;;0.30;0.30;;;;;;;;;;5095305;28;20049;-46
2021/05/17 14:08:44;;;;;;;0.30;0.30;;;;;;;;;;5094237;28;20441;-46
2021/05/17 14:11:12;;;;;;;0.80;0.45;;;;;;;;;;5094652;28;20024;-46
2021/05/17 14:13:38;;;;;;;0.20;0.20;;;;;;;;;;5094493;28;20048;-46
2021/05/17 14:16:04;;;;;;;0.30;0.30;;;;;;;;;;5088351;28;20047;-46
2021/05/17 14:18:30;;;;;;;0.22;0.22;;;;;;;;;;5087820;28;20372;-46
2021/05/17 14:20:57;;;;;;;0.35;0.35;;;;;;;;;;5093762;28;20020;-46
2021/05/17 14:23:23;;;;;;;0.20;0.20;;;;;;;;;;5094174;28;20040;-46
2021/05/17 14:25:49;;;;;;;1.35;0.60;;;;;;;;;;5088471;28;20043;-46
2021/05/17 14:28:15;;;;;;;1.65;0.68;;;;;;;;;;5087355;28;20028;-46
2021/05/17 14:30:41;;;;;;;0.30;0.30;;;;;;;;;;5094067;28;20047;-46
2021/05/17 14:33:09;;;;;;;0.30;0.30;;;;;;;;;;5094179;28;20365;-46
2021/05/17 14:35:35;;;;;;;1.50;0.63;;;;;;;;;;5094382;28;20400;-46
2021/05/17 14:38:01;;;;;;;0.73;0.30;;;;;;;;;;5093866;28;20115;-46
2021/05/17 14:40:27;;;;;;;0.70;0.70;;;;;;;;;;5093852;28;20027;-46
2021/05/17 14:42:53;;;;;;;1.08;0.75;;;;;;;;;;5093735;28;20094;-46
2021/05/17 14:45:19;;;;;;;0.35;0.35;;;;;;;;;;5088067;28;20027;-46
2021/05/17 14:47:45;;;;;;;0.52;0.32;;;;;;;;;;5082609;28;20513;-46
2021/05/17 14:50:13;;;;;;;0.30;0.30;;;;;;;;;;5078954;28;20028;-47
2021/05/17 14:52:39;;;;;;;0.40;0.40;;;;;;;;;;5093925;28;20020;-46
2021/05/17 14:55:06;;;;;;;1.77;0.47;;;;;;;;;;5094095;28;20049;-46
2021/05/17 14:57:32;;;;;;;4.85;1.08;;;;;;;;;;5093235;28;20449;-46
2021/05/17 14:59:58;;;;;;;0.82;0.65;;;;;;;;;;5093670;28;20035;-46
2021/05/17 15:02:26;;;;;;;0.60;0.60;;;;;;;;;;5093779;28;20012;-46
2021/05/17 15:04:52;;;;;;;3.90;0.38;;;;;;;;;;5092924;28;20039;-46
2021/05/17 15:07:18;;;;;;;0.52;0.50;;;;;;;;;;5088091;28;20438;-46
2021/05/17 15:09:44;;;;;;;0.40;0.40;;;;;;;;;;5073634;28;20020;-46
2021/05/17 15:12:10;;;;;;;1.77;0.50;;;;;;;;;;5072469;28;20074;-46
2021/05/17 15:14:36;;;;;;;0.30;0.30;;;;;;;;;;5073331;28;20021;-46
2021/05/17 15:17:02;;;;;;;0.90;0.30;;;;;;;;;;5073222;28;20016;-46
2021/05/17 15:19:28;;;;;;;0.43;0.30;;;;;;;;;;5073068;28;20028;-47
2021/05/17 15:21:54;;;;;;;1.02;0.52;;;;;;;;;;5073436;28;20031;-46